createdAt,value
2022-08-01T04:10:30.830Z,19.00
2022-08-01T04:15:32.918Z,19.00
2022-08-01T04:20:34.939Z,18.90
2022-08-01T04:25:40.716Z,18.90
2022-08-01T04:30:45.963Z,18.90
2022-08-01T04:36:02.347Z,18.90
2022-08-01T04:41:09.108Z,18.90
2022-08-01T04:46:13.219Z,18.90
2022-08-01T04:51:22.850Z,19.00
2022-08-01T04:56:24.885Z,19.10
2022-08-01T05:01:26.851Z,19.00
2022-08-01T05:06:28.851Z,18.90
2022-08-01T05:11:31.683Z,18.90
2022-08-01T05:16:33.624Z,18.90
2022-08-01T05:21:36.345Z,19.00
2022-08-01T05:26:38.324Z,19.00
2022-08-01T05:31:40.945Z,19.10
2022-08-01T05:36:44.364Z,19.40
2022-08-01T05:41:46.599Z,19.60
2022-08-01T05:46:48.629Z,19.80
2022-08-01T05:51:50.574Z,20.00
2022-08-01T05:56:52.587Z,20.00
2022-08-01T06:01:54.742Z,20.00
2022-08-01T06:06:56.850Z,20.00
2022-08-01T06:11:59.106Z,20.00
2022-08-01T06:17:01.137Z,20.10
2022-08-01T06:22:03.704Z,20.10
2022-08-01T06:27:06.076Z,20.10
2022-08-01T06:32:26.807Z,20.10
2022-08-01T06:37:33.349Z,20.20
2022-08-01T06:42:38.877Z,20.30
2022-08-01T06:47:43.293Z,20.50
2022-08-01T06:52:45.450Z,20.70
2022-08-01T06:57:53.450Z,20.90
2022-08-01T07:02:59.592Z,21.10
2022-08-01T07:08:02.041Z,21.40
2022-08-01T07:13:03.967Z,21.50
2022-08-01T07:18:05.975Z,21.80
2022-08-01T07:23:08.130Z,22.00
2022-08-01T07:28:10.221Z,22.10
2022-08-01T07:33:12.824Z,22.20
2022-08-01T07:38:17.808Z,22.30
2022-08-01T07:43:19.732Z,22.40
2022-08-01T07:48:24.914Z,22.20
2022-08-01T07:53:27.855Z,21.80
2022-08-01T07:58:30.595Z,21.70
2022-08-01T08:03:32.537Z,21.90
2022-08-01T08:08:35.636Z,22.30
2022-08-01T08:13:37.679Z,22.50
2022-08-01T08:18:39.845Z,22.50
2022-08-01T08:24:00.008Z,23.00
2022-08-01T08:29:01.981Z,23.10
2022-08-01T08:34:04.012Z,23.20
2022-08-01T08:39:06.724Z,23.30
2022-08-01T08:44:11.896Z,23.40
2022-08-01T08:49:22.325Z,23.30
2022-08-01T08:54:31.116Z,23.20
2022-08-01T08:59:39.883Z,23.30
2022-08-01T09:04:42.510Z,23.70
2022-08-01T09:09:44.660Z,24.40
2022-08-01T09:14:51.003Z,24.30
2022-08-01T09:19:57.750Z,24.30
2022-08-01T09:25:07.025Z,25.10
2022-08-01T09:30:13.227Z,26.20
2022-08-01T09:35:43.408Z,25.80
2022-08-01T09:40:58.069Z,25.20
2022-08-01T09:46:06.415Z,25.00
2022-08-01T09:52:00.190Z,24.10
2022-08-01T09:57:18.356Z,23.50
2022-08-01T10:02:31.447Z,23.20
2022-08-01T10:07:43.587Z,23.10
2022-08-01T10:12:47.734Z,23.80
2022-08-01T10:18:00.338Z,25.80
2022-08-01T10:23:06.386Z,26.80
2022-08-01T10:28:23.893Z,26.80
2022-08-01T10:33:51.865Z,25.60
2022-08-01T10:38:48.589Z,24.60
2022-08-01T10:43:50.671Z,23.90
2022-08-01T10:49:03.512Z,23.70
2022-08-01T10:54:09.755Z,24.40
2022-08-01T10:59:58.939Z,26.20
2022-08-01T11:05:20.755Z,27.50
2022-08-01T11:10:38.334Z,28.30
2022-08-01T11:15:50.572Z,27.90
2022-08-01T11:21:59.190Z,27.70
2022-08-01T11:26:30.111Z,26.60
2022-08-01T11:31:37.934Z,25.50
2022-08-01T11:36:58.395Z,24.90
2022-08-01T11:42:21.391Z,24.40
2022-08-01T11:47:50.335Z,24.20
2022-08-01T11:53:06.668Z,24.00
2022-08-01T11:58:22.429Z,24.00
2022-08-01T12:03:34.151Z,23.80
2022-08-01T12:08:37.590Z,23.90
2022-08-01T12:13:42.868Z,24.30
2022-08-01T12:18:45.246Z,25.10
2022-08-01T12:24:01.369Z,25.50
2022-08-01T12:29:03.544Z,26.80
2022-08-01T12:34:31.558Z,27.00
2022-08-01T12:39:34.926Z,26.10
2022-08-01T12:44:37.801Z,25.40
2022-08-01T12:49:42.523Z,25.10
2022-08-01T12:55:11.651Z,25.20
2022-08-01T13:00:24.938Z,25.20
2022-08-01T13:05:27.883Z,26.50
2022-08-01T13:10:31.822Z,27.80
2022-08-01T13:15:41.899Z,28.50
2022-08-01T13:20:44.391Z,28.50
2022-08-01T13:25:57.169Z,29.00
2022-08-01T13:31:08.963Z,29.50
2022-08-01T13:36:12.412Z,30.10
2022-08-01T13:41:24.676Z,30.00
2022-08-01T13:46:30.268Z,28.40
2022-08-01T13:51:33.459Z,27.20
2022-08-01T13:56:35.898Z,27.80
2022-08-01T14:01:38.858Z,28.60
2022-08-01T14:06:42.017Z,28.30
2022-08-01T14:11:45.925Z,28.80
2022-08-01T14:16:48.766Z,29.80
2022-08-01T14:21:53.627Z,30.30
2022-08-01T14:26:56.584Z,29.50
2022-08-01T14:31:59.963Z,29.70
2022-08-01T14:37:06.616Z,29.60
2022-08-01T14:42:10.398Z,30.40
2022-08-01T14:47:16.107Z,31.30
2022-08-01T14:52:28.094Z,31.70
2022-08-01T14:57:37.829Z,30.70
2022-08-01T15:02:40.897Z,29.40
2022-08-01T15:07:52.224Z,28.40
2022-08-01T15:12:56.723Z,29.60
2022-08-01T15:17:59.374Z,29.70
2022-08-01T15:23:01.782Z,29.10
2022-08-01T15:28:04.467Z,28.40
2022-08-01T15:33:07.305Z,28.20
2022-08-01T15:38:09.579Z,29.20
2022-08-01T15:43:15.125Z,30.10
2022-08-01T15:48:18.387Z,30.10
2022-08-01T15:53:20.641Z,30.10
2022-08-01T15:58:23.451Z,30.20
2022-08-01T16:03:25.742Z,29.00
2022-08-01T16:08:27.897Z,28.20
2022-08-01T16:13:30.135Z,28.30
2022-08-01T16:18:32.316Z,28.30
2022-08-01T16:23:34.510Z,27.60
2022-08-01T16:28:37.495Z,27.30
2022-08-01T16:33:41.327Z,27.20
2022-08-01T16:38:56.602Z,27.00
2022-08-01T16:44:01.998Z,26.90
2022-08-01T16:50:28.022Z,26.80
2022-08-01T16:55:49.670Z,26.50
2022-08-01T17:00:56.289Z,26.10
2022-08-01T17:05:59.320Z,25.80
2022-08-01T17:11:01.575Z,25.50
2022-08-01T17:16:12.458Z,25.30
2022-08-01T17:21:15.129Z,25.20
2022-08-01T17:26:17.401Z,25.10
2022-08-01T17:31:19.789Z,25.00
2022-08-01T17:36:22.290Z,24.80
2022-08-01T17:41:24.557Z,24.70
2022-08-01T17:46:26.946Z,24.60
2022-08-01T17:51:30.524Z,24.50
2022-08-01T17:56:37.933Z,24.40
2022-08-01T18:01:45.285Z,24.20
2022-08-01T18:06:58.446Z,24.10
2022-08-01T18:12:03.407Z,24.10
2022-08-01T18:17:06.951Z,24.00
2022-08-01T18:22:28.810Z,23.80
2022-08-01T18:28:25.815Z,23.70
2022-08-01T18:32:57.778Z,23.50
2022-08-01T18:38:00.126Z,23.40
2022-08-01T18:43:04.393Z,23.20
2022-08-01T18:48:06.870Z,23.10
2022-08-01T18:53:09.144Z,23.00
2022-08-01T18:58:11.366Z,22.80
2022-08-01T19:03:15.437Z,22.60
2022-08-01T19:08:17.626Z,22.50
2022-08-01T19:13:20.707Z,22.30
2022-08-01T19:18:24.674Z,22.20
2022-08-01T19:23:45.840Z,22.20
2022-08-01T19:29:01.143Z,22.10
2022-08-01T19:34:07.728Z,22.00
2022-08-01T19:39:10.272Z,21.90
2022-08-01T19:44:16.560Z,21.90
2022-08-01T19:49:24.186Z,21.90
2022-08-01T19:54:33.652Z,21.90
2022-08-01T19:59:36.866Z,21.80
2022-08-01T20:04:38.801Z,21.80
2022-08-01T20:09:42.373Z,21.70
2022-08-01T20:14:44.913Z,21.70
2022-08-01T20:19:48.035Z,21.60
2022-08-01T20:24:58.253Z,21.60
